Rota, MP (96951)

4:05 AM ChST on March 02, 2017 (GMT +1000)
Andersen Air Force Base | | Change Station

Elev 610 ft 13.58 °N, 144.92 °E | Updated 7 minutes ago

Overcast
Overcast
77 °F
Feels Like 77 °F
N
12
Wind Variable Wind from ENE

Today
High -- | Low -- °F
--% Chance of Precip.
Yesterday
High -- | Low -- °F
Precip. -- in
Pressure 29.81 in
Visibility 10.0 miles
Clouds Scattered Clouds 1800 ft
Scattered Clouds 17000 ft
Mostly Cloudy 21000 ft
Dew Point 72 °F
Humidity 84%
Rainfall 0.00 in
Snow Depth Not available.
6:35 AM 6:27 PM
Waxing Crescent, 12% visible
METAR PGUA 011758Z AUTO 07010KT 10SM SCT018 SCT170 BKN210 25/22 A2984 RMK AO2 SLP095 60000 T02490221 10257 20248 57015 $
Pressure 29.81 in
Visibility 10.0 miles
Clouds Scattered Clouds 1800 ft
Scattered Clouds 17000 ft
Mostly Cloudy 21000 ft
Dew Point 72 °F
Humidity 84%
Rainfall 0.00 in
Snow Depth Not available.
6:35 AM 6:27 PM
Waxing Crescent, 12% visible
METAR PGUA 011758Z AUTO 07010KT 10SM SCT018 SCT170 BKN210 25/22 A2984 RMK AO2 SLP095 60000 T02490221 10257 20248 57015 $

Get Your Daily Forecast Email!

Thanks for signing up!

Be on the lookout for a verification email in your inbox.

You'll start receiving the daily forecast at 8 AM.

×

10-Day Weather Forecast

Almanac

Astronomy

Mar. 02, 2017 Rise Set
Actual Time
Civil Twilight
Nautical Twilight
Astronomical Twilight
Moon
Length of Visible Light
Length of Day
Tomorrow will be .
, % of the Moon is Illuminated

Today's Extremes

State Highs State Lows

Community

WunderPhotos

Upload Photos

1,962,540 photos uploaded!

WunderBlog® & News

Nearby

Air Quality

  Air Quality AQ Index Pollutant
Not available.

Snow Depth

Station Depth Elevation

Earthquake Activity

City Distance Mag. Time & Date
Minimum magnitude displayed is 2.5.

Coastal Water Temperatures

Place Temperature

Stations

Nearby Weather Stations

Station Location Temp. Windchill Dew Point Humidity Wind Precip. Elev Updated Type
                   

Watches & Warnings

There are currently no watches in effect.